sensor_id;sensor_type;location;lat;lon;timestamp;P1;durP1;ratioP1;P2;durP2;ratioP2
36689;SDS011;22676;51.120;3.702;2023-12-20T01:14:31;1.50;;;0.90;;
36689;SDS011;22676;51.120;3.702;2023-12-20T01:21:28;0.80;;;0.80;;
36689;SDS011;22676;51.120;3.702;2023-12-20T01:42:25;2.03;;;0.90;;
36689;SDS011;22676;51.120;3.702;2023-12-20T01:49:22;2.13;;;0.80;;
36689;SDS011;22676;51.120;3.702;2023-12-20T01:56:20;1.10;;;0.73;;
36689;SDS011;22676;51.120;3.702;2023-12-20T02:10:15;0.73;;;0.65;;
36689;SDS011;22676;51.120;3.702;2023-12-20T02:17:13;1.83;;;1.00;;
36689;SDS011;22676;51.120;3.702;2023-12-20T02:24:11;2.90;;;0.70;;
36689;SDS011;22676;51.120;3.702;2023-12-20T02:31:06;1.05;;;0.73;;
36689;SDS011;22676;51.120;3.702;2023-12-20T02:38:03;0.98;;;0.63;;
36689;SDS011;22676;51.120;3.702;2023-12-20T02:44:57;1.05;;;0.70;;
36689;SDS011;22676;51.120;3.702;2023-12-20T02:51:55;2.05;;;0.63;;
36689;SDS011;22676;51.120;3.702;2023-12-20T02:58:52;0.88;;;0.77;;
36689;SDS011;22676;51.120;3.702;2023-12-20T03:41:54;1.85;;;0.90;;
36689;SDS011;22676;51.120;3.702;2023-12-20T03:55:48;1.20;;;0.80;;
36689;SDS011;22676;51.120;3.702;2023-12-20T04:02:46;1.27;;;0.80;;
36689;SDS011;22676;51.120;3.702;2023-12-20T04:09:44;1.13;;;0.70;;
36689;SDS011;22676;51.120;3.702;2023-12-20T04:13:13;3.35;;;0.80;;
36689;SDS011;22676;51.120;3.702;2023-12-20T04:16:43;2.08;;;0.82;;
36689;SDS011;22676;51.120;3.702;2023-12-20T04:41:42;0.93;;;0.70;;
36689;SDS011;22676;51.120;3.702;2023-12-20T04:48:40;1.58;;;0.85;;
36689;SDS011;22676;51.120;3.702;2023-12-20T04:55:37;1.23;;;0.70;;
36689;SDS011;22676;51.120;3.702;2023-12-20T05:02:35;1.20;;;0.80;;
36689;SDS011;22676;51.120;3.702;2023-12-20T05:05:59;1.52;;;0.82;;
36689;SDS011;22676;51.120;3.702;2023-12-20T05:09:28;1.63;;;0.80;;
36689;SDS011;22676;51.120;3.702;2023-12-20T05:23:19;1.38;;;0.68;;
36689;SDS011;22676;51.120;3.702;2023-12-20T05:44:37;1.00;;;0.70;;
36689;SDS011;22676;51.120;3.702;2023-12-20T05:51:35;2.38;;;1.10;;
36689;SDS011;22676;51.120;3.702;2023-12-20T05:58:33;1.75;;;0.90;;
36689;SDS011;22676;51.120;3.702;2023-12-20T06:05:30;4.10;;;0.85;;
36689;SDS011;22676;51.120;3.702;2023-12-20T06:12:28;4.05;;;0.88;;
36689;SDS011;22676;51.120;3.702;2023-12-20T06:19:26;2.33;;;1.00;;
36689;SDS011;22676;51.120;3.702;2023-12-20T06:26:18;3.45;;;1.00;;
36689;SDS011;22676;51.120;3.702;2023-12-20T06:40:14;1.60;;;0.80;;
36689;SDS011;22676;51.120;3.702;2023-12-20T06:47:37;4.10;;;1.30;;
36689;SDS011;22676;51.120;3.702;2023-12-20T06:54:34;2.17;;;1.10;;
36689;SDS011;22676;51.120;3.702;2023-12-20T07:01:32;3.17;;;1.20;;
36689;SDS011;22676;51.120;3.702;2023-12-20T07:08:30;1.83;;;0.93;;
36689;SDS011;22676;51.120;3.702;2023-12-20T07:15:28;2.28;;;1.10;;
36689;SDS011;22676;51.120;3.702;2023-12-20T07:22:25;3.63;;;1.30;;
36689;SDS011;22676;51.120;3.702;2023-12-20T07:29:23;4.50;;;1.75;;
36689;SDS011;22676;51.120;3.702;2023-12-20T08:16:08;3.15;;;1.45;;
36689;SDS011;22676;51.120;3.702;2023-12-20T08:19:37;5.05;;;1.50;;
36689;SDS011;22676;51.120;3.702;2023-12-20T08:23:07;3.30;;;1.42;;
36689;SDS011;22676;51.120;3.702;2023-12-20T08:30:04;5.35;;;1.38;;
36689;SDS011;22676;51.120;3.702;2023-12-20T08:37:02;3.13;;;1.50;;
36689;SDS011;22676;51.120;3.702;2023-12-20T08:44:00;2.85;;;1.67;;
36689;SDS011;22676;51.120;3.702;2023-12-20T08:50:57;4.70;;;1.50;;
36689;SDS011;22676;51.120;3.702;2023-12-20T08:57:54;5.95;;;1.38;;
36689;SDS011;22676;51.120;3.702;2023-12-20T10:06:46;6.85;;;1.80;;
36689;SDS011;22676;51.120;3.702;2023-12-20T10:13:44;10.65;;;2.13;;
36689;SDS011;22676;51.120;3.702;2023-12-20T10:20:41;6.32;;;2.08;;
36689;SDS011;22676;51.120;3.702;2023-12-20T10:27:38;3.72;;;1.85;;
36689;SDS011;22676;51.120;3.702;2023-12-20T10:34:36;5.60;;;1.88;;
36689;SDS011;22676;51.120;3.702;2023-12-20T10:38:06;6.03;;;1.60;;
36689;SDS011;22676;51.120;3.702;2023-12-20T10:41:35;7.80;;;2.05;;
36689;SDS011;22676;51.120;3.702;2023-12-20T10:48:33;5.97;;;1.85;;
36689;SDS011;22676;51.120;3.702;2023-12-20T11:28:23;9.98;;;2.72;;
36689;SDS011;22676;51.120;3.702;2023-12-20T11:35:21;7.45;;;2.03;;
36689;SDS011;22676;51.120;3.702;2023-12-20T11:49:17;6.88;;;2.50;;
36689;SDS011;22676;51.120;3.702;2023-12-20T11:56:15;7.88;;;3.30;;
36689;SDS011;22676;51.120;3.702;2023-12-20T12:03:14;8.43;;;3.45;;
36689;SDS011;22676;51.120;3.702;2023-12-20T12:10:09;6.45;;;3.42;;
36689;SDS011;22676;51.120;3.702;2023-12-20T12:24:06;10.27;;;3.40;;
36689;SDS011;22676;51.120;3.702;2023-12-20T12:31:03;10.68;;;3.13;;
36689;SDS011;22676;51.120;3.702;2023-12-20T12:38:01;5.18;;;2.92;;
36689;SDS011;22676;51.120;3.702;2023-12-20T12:44:59;5.45;;;2.75;;
36689;SDS011;22676;51.120;3.702;2023-12-20T12:51:57;7.45;;;2.20;;
36689;SDS011;22676;51.120;3.702;2023-12-20T12:58:55;5.25;;;2.33;;
36689;SDS011;22676;51.120;3.702;2023-12-20T13:05:52;4.15;;;2.50;;
36689;SDS011;22676;51.120;3.702;2023-12-20T13:48:55;5.50;;;2.10;;
36689;SDS011;22676;51.120;3.702;2023-12-20T13:55:52;3.60;;;1.85;;
36689;SDS011;22676;51.120;3.702;2023-12-20T14:02:50;2.88;;;1.88;;
36689;SDS011;22676;51.120;3.702;2023-12-20T14:09:48;3.67;;;2.15;;
36689;SDS011;22676;51.120;3.702;2023-12-20T14:16:47;3.85;;;2.13;;
36689;SDS011;22676;51.120;3.702;2023-12-20T14:23:45;4.88;;;2.40;;
36689;SDS011;22676;51.120;3.702;2023-12-20T15:21:09;5.28;;;1.80;;
36689;SDS011;22676;51.120;3.702;2023-12-20T15:28:09;4.72;;;1.73;;
36689;SDS011;22676;51.120;3.702;2023-12-20T15:35:06;5.78;;;1.60;;
36689;SDS011;22676;51.120;3.702;2023-12-20T15:42:04;3.38;;;1.60;;
36689;SDS011;22676;51.120;3.702;2023-12-20T15:49:02;2.33;;;1.30;;
36689;SDS011;22676;51.120;3.702;2023-12-20T15:56:00;2.40;;;1.50;;
36689;SDS011;22676;51.120;3.702;2023-12-20T16:02:57;2.97;;;1.42;;
36689;SDS011;22676;51.120;3.702;2023-12-20T16:09:55;3.20;;;1.35;;
36689;SDS011;22676;51.120;3.702;2023-12-20T16:16:53;2.10;;;1.13;;
36689;SDS011;22676;51.120;3.702;2023-12-20T16:23:52;3.30;;;1.42;;
36689;SDS011;22676;51.120;3.702;2023-12-20T16:30:52;1.80;;;1.20;;
36689;SDS011;22676;51.120;3.702;2023-12-20T16:37:49;3.95;;;1.40;;
36689;SDS011;22676;51.120;3.702;2023-12-20T16:41:38;2.65;;;1.60;;
36689;SDS011;22676;51.120;3.702;2023-12-20T16:45:07;2.78;;;1.48;;
36689;SDS011;22676;51.120;3.702;2023-12-20T16:48:37;5.10;;;1.58;;
36689;SDS011;22676;51.120;3.702;2023-12-20T16:59:04;7.45;;;2.88;;
36689;SDS011;22676;51.120;3.702;2023-12-20T17:13:00;11.38;;;3.80;;
36689;SDS011;22676;51.120;3.702;2023-12-20T17:19:58;8.13;;;3.20;;
36689;SDS011;22676;51.120;3.702;2023-12-20T17:33:54;5.65;;;2.60;;
36689;SDS011;22676;51.120;3.702;2023-12-20T17:40:52;6.90;;;2.60;;
36689;SDS011;22676;51.120;3.702;2023-12-20T17:47:50;11.60;;;2.53;;
36689;SDS011;22676;51.120;3.702;2023-12-20T17:54:48;7.72;;;2.72;;
36689;SDS011;22676;51.120;3.702;2023-12-20T18:01:47;9.07;;;2.20;;
36689;SDS011;22676;51.120;3.702;2023-12-20T18:48:07;10.38;;;2.40;;
36689;SDS011;22676;51.120;3.702;2023-12-20T18:55:05;3.20;;;1.55;;
36689;SDS011;22676;51.120;3.702;2023-12-20T18:58:35;6.03;;;1.70;;
36689;SDS011;22676;51.120;3.702;2023-12-20T19:02:04;6.38;;;1.63;;
36689;SDS011;22676;51.120;3.702;2023-12-20T19:09:01;3.70;;;1.55;;
36689;SDS011;22676;51.120;3.702;2023-12-20T19:15:59;6.30;;;1.77;;
36689;SDS011;22676;51.120;3.702;2023-12-20T20:10:33;3.25;;;1.10;;
36689;SDS011;22676;51.120;3.702;2023-12-20T20:17:31;4.97;;;1.35;;
36689;SDS011;22676;51.120;3.702;2023-12-20T20:24:29;2.88;;;1.27;;
36689;SDS011;22676;51.120;3.702;2023-12-20T20:31:27;3.50;;;1.13;;
36689;SDS011;22676;51.120;3.702;2023-12-20T20:38:24;12.00;;;1.50;;
36689;SDS011;22676;51.120;3.702;2023-12-20T20:41:54;6.22;;;1.50;;
36689;SDS011;22676;51.120;3.702;2023-12-20T20:45:23;5.88;;;1.30;;
36689;SDS011;22676;51.120;3.702;2023-12-20T20:52:21;4.15;;;1.17;;
36689;SDS011;22676;51.120;3.702;2023-12-20T21:28:38;2.80;;;1.17;;
36689;SDS011;22676;51.120;3.702;2023-12-20T21:35:36;2.00;;;1.08;;
36689;SDS011;22676;51.120;3.702;2023-12-20T21:42:34;3.90;;;1.40;;
36689;SDS011;22676;51.120;3.702;2023-12-20T21:49:32;7.10;;;1.40;;
36689;SDS011;22676;51.120;3.702;2023-12-20T21:56:30;3.53;;;1.40;;
36689;SDS011;22676;51.120;3.702;2023-12-20T22:28:06;2.50;;;1.30;;
36689;SDS011;22676;51.120;3.702;2023-12-20T22:42:07;1.75;;;1.20;;
36689;SDS011;22676;51.120;3.702;2023-12-20T22:52:34;2.08;;;1.00;;
36689;SDS011;22676;51.120;3.702;2023-12-20T23:03:00;2.25;;;0.93;;
36689;SDS011;22676;51.120;3.702;2023-12-20T23:06:30;0.85;;;0.80;;
36689;SDS011;22676;51.120;3.702;2023-12-20T23:16:55;3.53;;;1.17;;
36689;SDS011;22676;51.120;3.702;2023-12-20T23:38:35;2.03;;;1.05;;
36689;SDS011;22676;51.120;3.702;2023-12-20T23:52:30;1.85;;;1.10;;
36689;SDS011;22676;51.120;3.702;2023-12-20T23:59:28;1.92;;;1.00;;
